sensor_id;sensor_type;location;lat;lon;timestamp;P1;durP1;ratioP1;P2;durP2;ratioP2
29906;SDS011;16776;50.958;10.994;2023-06-26T00:01:09;1.50;;;1.40;;
29906;SDS011;16776;50.958;10.994;2023-06-26T00:03:38;1.55;;;1.38;;
29906;SDS011;16776;50.958;10.994;2023-06-26T00:06:05;1.38;;;1.27;;
29906;SDS011;16776;50.958;10.994;2023-06-26T00:08:32;1.63;;;1.33;;
29906;SDS011;16776;50.958;10.994;2023-06-26T00:10:58;1.45;;;1.30;;
29906;SDS011;16776;50.958;10.994;2023-06-26T00:13:28;1.50;;;1.40;;
29906;SDS011;16776;50.958;10.994;2023-06-26T00:15:56;2.13;;;1.92;;
29906;SDS011;16776;50.958;10.994;2023-06-26T00:18:22;1.45;;;1.35;;
29906;SDS011;16776;50.958;10.994;2023-06-26T00:20:51;1.77;;;1.67;;
29906;SDS011;16776;50.958;10.994;2023-06-26T00:23:18;1.38;;;1.27;;
29906;SDS011;16776;50.958;10.994;2023-06-26T00:25:44;1.65;;;1.52;;
29906;SDS011;16776;50.958;10.994;2023-06-26T00:28:11;2.05;;;1.55;;
29906;SDS011;16776;50.958;10.994;2023-06-26T00:30:38;1.25;;;1.15;;
29906;SDS011;16776;50.958;10.994;2023-06-26T00:33:06;1.52;;;1.42;;
29906;SDS011;16776;50.958;10.994;2023-06-26T00:35:32;2.00;;;1.80;;
29906;SDS011;16776;50.958;10.994;2023-06-26T00:38:00;1.65;;;1.40;;
29906;SDS011;16776;50.958;10.994;2023-06-26T00:40:27;1.15;;;1.15;;
29906;SDS011;16776;50.958;10.994;2023-06-26T00:42:55;1.52;;;1.42;;
29906;SDS011;16776;50.958;10.994;2023-06-26T00:45:22;1.50;;;1.40;;
29906;SDS011;16776;50.958;10.994;2023-06-26T00:47:48;1.52;;;1.42;;
29906;SDS011;16776;50.958;10.994;2023-06-26T00:50:16;2.10;;;1.90;;
29906;SDS011;16776;50.958;10.994;2023-06-26T00:52:43;1.83;;;1.73;;
29906;SDS011;16776;50.958;10.994;2023-06-26T00:55:10;2.20;;;1.42;;
29906;SDS011;16776;50.958;10.994;2023-06-26T00:57:37;2.08;;;1.73;;
29906;SDS011;16776;50.958;10.994;2023-06-26T01:00:06;2.47;;;1.73;;
29906;SDS011;16776;50.958;10.994;2023-06-26T01:02:35;1.90;;;1.77;;
29906;SDS011;16776;50.958;10.994;2023-06-26T01:05:04;1.90;;;1.60;;
29906;SDS011;16776;50.958;10.994;2023-06-26T01:07:38;1.77;;;1.67;;
29906;SDS011;16776;50.958;10.994;2023-06-26T01:10:06;2.08;;;1.75;;
29906;SDS011;16776;50.958;10.994;2023-06-26T01:12:33;1.73;;;1.60;;
29906;SDS011;16776;50.958;10.994;2023-06-26T01:15:00;1.95;;;1.70;;
29906;SDS011;16776;50.958;10.994;2023-06-26T01:17:27;1.52;;;1.42;;
29906;SDS011;16776;50.958;10.994;2023-06-26T01:19:56;1.77;;;1.67;;
29906;SDS011;16776;50.958;10.994;2023-06-26T01:22:26;1.73;;;1.63;;
29906;SDS011;16776;50.958;10.994;2023-06-26T01:25:01;1.92;;;1.77;;
29906;SDS011;16776;50.958;10.994;2023-06-26T01:27:37;1.70;;;1.60;;
29906;SDS011;16776;50.958;10.994;2023-06-26T01:30:04;1.85;;;1.75;;
29906;SDS011;16776;50.958;10.994;2023-06-26T01:32:35;1.80;;;1.70;;
29906;SDS011;16776;50.958;10.994;2023-06-26T01:35:02;1.67;;;1.58;;
29906;SDS011;16776;50.958;10.994;2023-06-26T01:37:31;1.80;;;1.70;;
29906;SDS011;16776;50.958;10.994;2023-06-26T01:39:58;1.52;;;1.42;;
29906;SDS011;16776;50.958;10.994;2023-06-26T01:42:30;1.17;;;1.08;;
29906;SDS011;16776;50.958;10.994;2023-06-26T01:44:58;2.05;;;1.85;;
29906;SDS011;16776;50.958;10.994;2023-06-26T01:47:27;1.70;;;1.60;;
29906;SDS011;16776;50.958;10.994;2023-06-26T01:50:00;1.88;;;1.67;;
29906;SDS011;16776;50.958;10.994;2023-06-26T01:52:37;2.10;;;2.00;;
29906;SDS011;16776;50.958;10.994;2023-06-26T01:55:08;2.03;;;1.67;;
29906;SDS011;16776;50.958;10.994;2023-06-26T01:57:40;2.08;;;1.85;;
29906;SDS011;16776;50.958;10.994;2023-06-26T02:00:10;2.13;;;1.60;;
29906;SDS011;16776;50.958;10.994;2023-06-26T02:02:40;2.05;;;1.90;;
29906;SDS011;16776;50.958;10.994;2023-06-26T02:05:07;2.28;;;2.08;;
29906;SDS011;16776;50.958;10.994;2023-06-26T02:07:33;1.90;;;1.75;;
29906;SDS011;16776;50.958;10.994;2023-06-26T02:10:00;1.90;;;1.73;;
29906;SDS011;16776;50.958;10.994;2023-06-26T02:12:27;2.00;;;1.83;;
29906;SDS011;16776;50.958;10.994;2023-06-26T02:14:53;2.05;;;1.85;;
29906;SDS011;16776;50.958;10.994;2023-06-26T02:17:21;2.00;;;1.80;;
29906;SDS011;16776;50.958;10.994;2023-06-26T02:19:48;2.80;;;2.30;;
29906;SDS011;16776;50.958;10.994;2023-06-26T02:22:14;3.50;;;2.55;;
29906;SDS011;16776;50.958;10.994;2023-06-26T02:24:41;2.25;;;2.05;;
29906;SDS011;16776;50.958;10.994;2023-06-26T02:27:08;2.47;;;2.22;;
29906;SDS011;16776;50.958;10.994;2023-06-26T02:29:35;1.77;;;1.67;;
29906;SDS011;16776;50.958;10.994;2023-06-26T02:32:02;2.10;;;2.00;;
29906;SDS011;16776;50.958;10.994;2023-06-26T02:34:30;2.05;;;1.95;;
29906;SDS011;16776;50.958;10.994;2023-06-26T02:36:58;2.50;;;2.33;;
29906;SDS011;16776;50.958;10.994;2023-06-26T02:39:25;2.25;;;1.92;;
29906;SDS011;16776;50.958;10.994;2023-06-26T02:41:52;2.28;;;2.08;;
29906;SDS011;16776;50.958;10.994;2023-06-26T02:44:18;2.15;;;1.98;;
29906;SDS011;16776;50.958;10.994;2023-06-26T02:46:47;2.28;;;2.03;;
29906;SDS011;16776;50.958;10.994;2023-06-26T02:49:16;2.28;;;1.95;;
29906;SDS011;16776;50.958;10.994;2023-06-26T02:51:44;2.72;;;2.53;;
29906;SDS011;16776;50.958;10.994;2023-06-26T02:54:11;1.95;;;1.85;;
29906;SDS011;16776;50.958;10.994;2023-06-26T02:56:37;1.80;;;1.52;;
29906;SDS011;16776;50.958;10.994;2023-06-26T02:59:04;2.63;;;2.33;;
29906;SDS011;16776;50.958;10.994;2023-06-26T03:01:33;3.13;;;2.17;;
29906;SDS011;16776;50.958;10.994;2023-06-26T03:04:00;2.25;;;2.05;;
29906;SDS011;16776;50.958;10.994;2023-06-26T03:06:26;2.88;;;2.05;;
29906;SDS011;16776;50.958;10.994;2023-06-26T03:08:54;2.33;;;2.13;;
29906;SDS011;16776;50.958;10.994;2023-06-26T03:11:21;1.77;;;1.67;;
29906;SDS011;16776;50.958;10.994;2023-06-26T03:13:48;1.88;;;1.75;;
29906;SDS011;16776;50.958;10.994;2023-06-26T03:16:17;2.20;;;1.60;;
29906;SDS011;16776;50.958;10.994;2023-06-26T03:18:43;2.63;;;2.40;;
29906;SDS011;16776;50.958;10.994;2023-06-26T03:21:10;2.38;;;2.22;;
29906;SDS011;16776;50.958;10.994;2023-06-26T03:23:36;2.83;;;2.17;;
29906;SDS011;16776;50.958;10.994;2023-06-26T03:26:04;2.20;;;2.00;;
29906;SDS011;16776;50.958;10.994;2023-06-26T03:28:31;2.50;;;2.00;;
29906;SDS011;16776;50.958;10.994;2023-06-26T03:30:57;3.10;;;1.92;;
29906;SDS011;16776;50.958;10.994;2023-06-26T03:33:24;3.10;;;2.33;;
29906;SDS011;16776;50.958;10.994;2023-06-26T03:35:51;2.67;;;2.45;;
29906;SDS011;16776;50.958;10.994;2023-06-26T03:38:17;1.90;;;1.75;;
29906;SDS011;16776;50.958;10.994;2023-06-26T03:40:44;2.50;;;2.17;;
29906;SDS011;16776;50.958;10.994;2023-06-26T03:43:12;2.25;;;2.08;;
29906;SDS011;16776;50.958;10.994;2023-06-26T03:45:38;2.38;;;2.17;;
29906;SDS011;16776;50.958;10.994;2023-06-26T03:48:05;2.13;;;2.03;;
29906;SDS011;16776;50.958;10.994;2023-06-26T03:50:33;2.33;;;2.13;;
29906;SDS011;16776;50.958;10.994;2023-06-26T03:53:00;2.28;;;2.10;;
29906;SDS011;16776;50.958;10.994;2023-06-26T03:55:27;2.03;;;1.85;;
29906;SDS011;16776;50.958;10.994;2023-06-26T03:57:53;1.92;;;1.70;;
29906;SDS011;16776;50.958;10.994;2023-06-26T04:00:24;1.92;;;1.83;;
29906;SDS011;16776;50.958;10.994;2023-06-26T04:02:50;2.10;;;2.00;;
29906;SDS011;16776;50.958;10.994;2023-06-26T04:05:17;2.22;;;2.03;;
29906;SDS011;16776;50.958;10.994;2023-06-26T04:07:45;2.63;;;2.20;;
29906;SDS011;16776;50.958;10.994;2023-06-26T04:10:11;2.50;;;2.30;;
29906;SDS011;16776;50.958;10.994;2023-06-26T04:12:38;3.45;;;2.00;;
29906;SDS011;16776;50.958;10.994;2023-06-26T04:15:05;3.33;;;2.58;;
29906;SDS011;16776;50.958;10.994;2023-06-26T04:17:37;3.50;;;2.30;;
29906;SDS011;16776;50.958;10.994;2023-06-26T04:20:04;2.30;;;2.10;;
29906;SDS011;16776;50.958;10.994;2023-06-26T04:22:32;2.40;;;2.20;;
29906;SDS011;16776;50.958;10.994;2023-06-26T04:25:00;1.98;;;1.80;;
29906;SDS011;16776;50.958;10.994;2023-06-26T04:27:28;2.47;;;2.15;;
29906;SDS011;16776;50.958;10.994;2023-06-26T04:29:55;2.50;;;2.30;;
29906;SDS011;16776;50.958;10.994;2023-06-26T04:32:23;2.40;;;2.20;;
29906;SDS011;16776;50.958;10.994;2023-06-26T04:34:51;2.72;;;2.53;;
29906;SDS011;16776;50.958;10.994;2023-06-26T04:37:18;3.65;;;2.42;;
29906;SDS011;16776;50.958;10.994;2023-06-26T04:39:47;2.95;;;2.33;;
29906;SDS011;16776;50.958;10.994;2023-06-26T04:42:16;1.85;;;1.73;;
29906;SDS011;16776;50.958;10.994;2023-06-26T04:44:44;2.35;;;2.20;;
29906;SDS011;16776;50.958;10.994;2023-06-26T04:47:10;2.35;;;2.15;;
29906;SDS011;16776;50.958;10.994;2023-06-26T04:49:40;2.65;;;2.38;;
29906;SDS011;16776;50.958;10.994;2023-06-26T04:52:12;2.13;;;1.92;;
29906;SDS011;16776;50.958;10.994;2023-06-26T04:54:39;3.03;;;2.33;;
29906;SDS011;16776;50.958;10.994;2023-06-26T04:57:07;2.15;;;1.95;;
29906;SDS011;16776;50.958;10.994;2023-06-26T04:59:36;2.00;;;1.83;;
29906;SDS011;16776;50.958;10.994;2023-06-26T05:02:03;2.40;;;2.20;;
29906;SDS011;16776;50.958;10.994;2023-06-26T05:04:30;3.50;;;2.00;;
29906;SDS011;16776;50.958;10.994;2023-06-26T05:06:56;1.77;;;1.67;;
29906;SDS011;16776;50.958;10.994;2023-06-26T05:09:24;2.72;;;2.25;;
29906;SDS011;16776;50.958;10.994;2023-06-26T05:11:51;2.10;;;1.90;;
29906;SDS011;16776;50.958;10.994;2023-06-26T05:14:19;1.98;;;1.88;;
29906;SDS011;16776;50.958;10.994;2023-06-26T05:16:45;2.88;;;2.33;;
29906;SDS011;16776;50.958;10.994;2023-06-26T05:19:12;1.95;;;1.85;;
29906;SDS011;16776;50.958;10.994;2023-06-26T05:21:38;2.40;;;2.20;;
29906;SDS011;16776;50.958;10.994;2023-06-26T05:24:08;2.45;;;2.10;;
29906;SDS011;16776;50.958;10.994;2023-06-26T05:26:37;2.83;;;2.05;;
29906;SDS011;16776;50.958;10.994;2023-06-26T05:29:04;2.45;;;2.22;;
29906;SDS011;16776;50.958;10.994;2023-06-26T05:31:31;2.28;;;2.08;;
29906;SDS011;16776;50.958;10.994;2023-06-26T05:34:00;2.22;;;2.03;;
29906;SDS011;16776;50.958;10.994;2023-06-26T05:36:29;3.10;;;2.22;;
29906;SDS011;16776;50.958;10.994;2023-06-26T05:39:01;2.45;;;2.25;;
29906;SDS011;16776;50.958;10.994;2023-06-26T05:41:28;3.45;;;2.20;;
29906;SDS011;16776;50.958;10.994;2023-06-26T05:43:56;2.47;;;2.28;;
29906;SDS011;16776;50.958;10.994;2023-06-26T05:46:23;2.08;;;1.85;;
29906;SDS011;16776;50.958;10.994;2023-06-26T05:48:50;3.30;;;2.30;;
29906;SDS011;16776;50.958;10.994;2023-06-26T05:51:17;2.33;;;2.13;;
29906;SDS011;16776;50.958;10.994;2023-06-26T05:53:47;2.38;;;2.17;;
29906;SDS011;16776;50.958;10.994;2023-06-26T05:56:15;2.15;;;1.95;;
29906;SDS011;16776;50.958;10.994;2023-06-26T05:58:45;2.40;;;2.20;;
29906;SDS011;16776;50.958;10.994;2023-06-26T06:01:14;2.72;;;2.40;;
29906;SDS011;16776;50.958;10.994;2023-06-26T06:03:40;2.33;;;2.13;;
29906;SDS011;16776;50.958;10.994;2023-06-26T06:06:08;2.42;;;2.22;;
29906;SDS011;16776;50.958;10.994;2023-06-26T06:08:34;2.35;;;2.10;;
29906;SDS011;16776;50.958;10.994;2023-06-26T06:11:04;2.20;;;2.00;;
29906;SDS011;16776;50.958;10.994;2023-06-26T06:13:30;2.30;;;1.95;;
29906;SDS011;16776;50.958;10.994;2023-06-26T06:15:59;2.35;;;2.15;;
29906;SDS011;16776;50.958;10.994;2023-06-26T06:18:27;2.92;;;2.20;;
29906;SDS011;16776;50.958;10.994;2023-06-26T06:20:54;2.40;;;2.20;;
29906;SDS011;16776;50.958;10.994;2023-06-26T06:23:20;2.67;;;2.47;;
29906;SDS011;16776;50.958;10.994;2023-06-26T06:25:48;2.17;;;2.00;;
29906;SDS011;16776;50.958;10.994;2023-06-26T06:28:15;2.38;;;2.17;;
29906;SDS011;16776;50.958;10.994;2023-06-26T06:30:42;2.30;;;2.10;;
29906;SDS011;16776;50.958;10.994;2023-06-26T06:33:08;2.00;;;1.90;;
29906;SDS011;16776;50.958;10.994;2023-06-26T06:35:36;2.45;;;2.25;;
29906;SDS011;16776;50.958;10.994;2023-06-26T06:38:03;2.40;;;2.17;;
29906;SDS011;16776;50.958;10.994;2023-06-26T06:40:29;2.20;;;2.00;;
29906;SDS011;16776;50.958;10.994;2023-06-26T06:42:56;2.42;;;2.22;;
29906;SDS011;16776;50.958;10.994;2023-06-26T06:45:23;2.40;;;2.20;;
29906;SDS011;16776;50.958;10.994;2023-06-26T06:47:49;2.00;;;1.90;;
29906;SDS011;16776;50.958;10.994;2023-06-26T06:50:16;2.08;;;1.92;;
29906;SDS011;16776;50.958;10.994;2023-06-26T06:52:44;2.15;;;1.95;;
29906;SDS011;16776;50.958;10.994;2023-06-26T06:55:14;2.20;;;2.00;;
29906;SDS011;16776;50.958;10.994;2023-06-26T06:57:40;1.95;;;1.85;;
29906;SDS011;16776;50.958;10.994;2023-06-26T07:00:08;2.60;;;2.40;;
29906;SDS011;16776;50.958;10.994;2023-06-26T07:02:36;2.20;;;2.10;;
29906;SDS011;16776;50.958;10.994;2023-06-26T07:05:02;2.38;;;2.17;;
29906;SDS011;16776;50.958;10.994;2023-06-26T07:07:30;2.10;;;2.00;;
29906;SDS011;16776;50.958;10.994;2023-06-26T07:09:59;3.85;;;2.22;;
29906;SDS011;16776;50.958;10.994;2023-06-26T07:12:25;3.38;;;2.17;;
29906;SDS011;16776;50.958;10.994;2023-06-26T07:14:52;2.42;;;2.22;;
29906;SDS011;16776;50.958;10.994;2023-06-26T07:17:19;2.10;;;1.95;;
29906;SDS011;16776;50.958;10.994;2023-06-26T07:19:46;2.20;;;2.03;;
29906;SDS011;16776;50.958;10.994;2023-06-26T07:22:12;2.17;;;2.03;;
29906;SDS011;16776;50.958;10.994;2023-06-26T07:24:41;2.42;;;2.25;;
29906;SDS011;16776;50.958;10.994;2023-06-26T07:27:13;2.00;;;1.90;;
29906;SDS011;16776;50.958;10.994;2023-06-26T07:29:39;2.33;;;2.13;;
29906;SDS011;16776;50.958;10.994;2023-06-26T07:32:06;2.45;;;2.15;;
29906;SDS011;16776;50.958;10.994;2023-06-26T07:34:35;2.45;;;2.25;;
29906;SDS011;16776;50.958;10.994;2023-06-26T07:37:02;2.20;;;2.10;;
29906;SDS011;16776;50.958;10.994;2023-06-26T07:39:29;1.90;;;1.80;;
29906;SDS011;16776;50.958;10.994;2023-06-26T07:41:59;1.98;;;1.83;;
29906;SDS011;16776;50.958;10.994;2023-06-26T07:44:27;2.50;;;2.30;;
29906;SDS011;16776;50.958;10.994;2023-06-26T07:46:56;1.73;;;1.63;;
29906;SDS011;16776;50.958;10.994;2023-06-26T07:49:23;2.00;;;1.90;;
29906;SDS011;16776;50.958;10.994;2023-06-26T07:51:51;1.88;;;1.77;;
29906;SDS011;16776;50.958;10.994;2023-06-26T07:54:18;1.70;;;1.60;;
29906;SDS011;16776;50.958;10.994;2023-06-26T07:56:54;2.72;;;2.15;;
29906;SDS011;16776;50.958;10.994;2023-06-26T07:59:21;2.28;;;2.13;;
29906;SDS011;16776;50.958;10.994;2023-06-26T08:01:51;2.03;;;1.92;;
29906;SDS011;16776;50.958;10.994;2023-06-26T08:04:19;2.50;;;2.30;;
29906;SDS011;16776;50.958;10.994;2023-06-26T08:06:47;2.00;;;1.90;;
29906;SDS011;16776;50.958;10.994;2023-06-26T08:09:14;2.20;;;2.10;;
29906;SDS011;16776;50.958;10.994;2023-06-26T08:11:41;2.30;;;2.10;;
29906;SDS011;16776;50.958;10.994;2023-06-26T08:14:10;2.25;;;2.05;;
29906;SDS011;16776;50.958;10.994;2023-06-26T08:16:38;2.30;;;2.10;;
29906;SDS011;16776;50.958;10.994;2023-06-26T08:19:05;2.40;;;2.20;;
29906;SDS011;16776;50.958;10.994;2023-06-26T08:21:32;2.97;;;2.67;;
29906;SDS011;16776;50.958;10.994;2023-06-26T08:23:59;2.33;;;2.13;;
29906;SDS011;16776;50.958;10.994;2023-06-26T08:26:25;2.38;;;2.17;;
29906;SDS011;16776;50.958;10.994;2023-06-26T08:28:52;2.00;;;1.88;;
29906;SDS011;16776;50.958;10.994;2023-06-26T08:31:21;2.00;;;1.90;;
29906;SDS011;16776;50.958;10.994;2023-06-26T08:33:48;2.05;;;1.95;;
29906;SDS011;16776;50.958;10.994;2023-06-26T08:36:15;2.28;;;2.08;;
29906;SDS011;16776;50.958;10.994;2023-06-26T08:38:42;2.60;;;1.83;;
29906;SDS011;16776;50.958;10.994;2023-06-26T08:41:09;1.90;;;1.80;;
29906;SDS011;16776;50.958;10.994;2023-06-26T08:43:36;2.05;;;1.95;;
29906;SDS011;16776;50.958;10.994;2023-06-26T08:46:03;2.03;;;1.92;;
29906;SDS011;16776;50.958;10.994;2023-06-26T08:48:31;1.98;;;1.88;;
29906;SDS011;16776;50.958;10.994;2023-06-26T08:50:59;2.08;;;1.98;;
29906;SDS011;16776;50.958;10.994;2023-06-26T08:53:36;1.65;;;1.55;;
29906;SDS011;16776;50.958;10.994;2023-06-26T08:56:11;3.17;;;2.22;;
29906;SDS011;16776;50.958;10.994;2023-06-26T08:58:46;1.73;;;1.63;;
29906;SDS011;16776;50.958;10.994;2023-06-26T09:01:13;2.55;;;2.35;;
29906;SDS011;16776;50.958;10.994;2023-06-26T09:03:40;2.40;;;2.20;;
29906;SDS011;16776;50.958;10.994;2023-06-26T09:06:07;2.05;;;1.95;;
29906;SDS011;16776;50.958;10.994;2023-06-26T09:08:38;1.88;;;1.77;;
29906;SDS011;16776;50.958;10.994;2023-06-26T09:11:05;1.90;;;1.80;;
29906;SDS011;16776;50.958;10.994;2023-06-26T09:13:31;2.72;;;2.53;;
29906;SDS011;16776;50.958;10.994;2023-06-26T09:15:58;2.80;;;2.30;;
29906;SDS011;16776;50.958;10.994;2023-06-26T09:18:25;2.00;;;1.90;;
29906;SDS011;16776;50.958;10.994;2023-06-26T09:20:51;2.10;;;2.00;;
29906;SDS011;16776;50.958;10.994;2023-06-26T09:23:18;2.92;;;2.30;;
29906;SDS011;16776;50.958;10.994;2023-06-26T09:25:49;3.17;;;2.22;;
29906;SDS011;16776;50.958;10.994;2023-06-26T09:28:17;2.22;;;1.98;;
29906;SDS011;16776;50.958;10.994;2023-06-26T09:30:44;2.35;;;2.25;;
29906;SDS011;16776;50.958;10.994;2023-06-26T09:33:15;2.47;;;2.28;;
29906;SDS011;16776;50.958;10.994;2023-06-26T09:35:42;2.60;;;2.40;;
29906;SDS011;16776;50.958;10.994;2023-06-26T09:38:11;3.20;;;2.97;;
29906;SDS011;16776;50.958;10.994;2023-06-26T09:40:40;2.50;;;2.30;;
29906;SDS011;16776;50.958;10.994;2023-06-26T09:43:09;2.80;;;2.60;;
29906;SDS011;16776;50.958;10.994;2023-06-26T09:48:06;2.08;;;1.98;;
29906;SDS011;16776;50.958;10.994;2023-06-26T09:50:33;2.00;;;1.85;;
29906;SDS011;16776;50.958;10.994;2023-06-26T09:53:06;2.13;;;2.03;;
29906;SDS011;16776;50.958;10.994;2023-06-26T09:55:34;1.67;;;1.58;;
29906;SDS011;16776;50.958;10.994;2023-06-26T09:58:01;2.28;;;2.17;;
29906;SDS011;16776;50.958;10.994;2023-06-26T10:00:33;1.67;;;1.58;;
29906;SDS011;16776;50.958;10.994;2023-06-26T10:03:05;2.50;;;2.30;;
29906;SDS011;16776;50.958;10.994;2023-06-26T10:05:33;2.45;;;2.25;;
29906;SDS011;16776;50.958;10.994;2023-06-26T10:08:02;2.10;;;1.95;;
29906;SDS011;16776;50.958;10.994;2023-06-26T10:10:31;2.25;;;2.15;;
29906;SDS011;16776;50.958;10.994;2023-06-26T10:13:00;2.17;;;2.08;;
29906;SDS011;16776;50.958;10.994;2023-06-26T10:15:34;2.22;;;2.03;;
29906;SDS011;16776;50.958;10.994;2023-06-26T10:18:02;2.47;;;2.28;;
29906;SDS011;16776;50.958;10.994;2023-06-26T10:20:30;2.30;;;2.10;;
29906;SDS011;16776;50.958;10.994;2023-06-26T10:22:58;2.30;;;2.20;;
29906;SDS011;16776;50.958;10.994;2023-06-26T10:25:28;1.90;;;1.80;;
29906;SDS011;16776;50.958;10.994;2023-06-26T10:27:58;2.85;;;2.65;;
29906;SDS011;16776;50.958;10.994;2023-06-26T10:30:29;2.38;;;2.17;;
29906;SDS011;16776;50.958;10.994;2023-06-26T10:33:03;2.38;;;2.17;;
29906;SDS011;16776;50.958;10.994;2023-06-26T10:35:30;2.67;;;2.47;;
29906;SDS011;16776;50.958;10.994;2023-06-26T10:38:00;2.40;;;2.20;;
29906;SDS011;16776;50.958;10.994;2023-06-26T10:40:30;2.45;;;2.25;;
29906;SDS011;16776;50.958;10.994;2023-06-26T10:43:12;2.15;;;2.00;;
29906;SDS011;16776;50.958;10.994;2023-06-26T10:45:43;1.98;;;1.88;;
29906;SDS011;16776;50.958;10.994;2023-06-26T10:48:14;2.88;;;2.47;;
29906;SDS011;16776;50.958;10.994;2023-06-26T10:50:42;1.85;;;1.75;;
29906;SDS011;16776;50.958;10.994;2023-06-26T10:53:10;2.50;;;2.30;;
29906;SDS011;16776;50.958;10.994;2023-06-26T10:55:43;2.83;;;2.65;;
29906;SDS011;16776;50.958;10.994;2023-06-26T10:58:28;2.53;;;2.38;;
29906;SDS011;16776;50.958;10.994;2023-06-26T11:01:14;2.25;;;2.08;;
29906;SDS011;16776;50.958;10.994;2023-06-26T11:03:46;2.80;;;2.60;;
29906;SDS011;16776;50.958;10.994;2023-06-26T11:06:15;2.08;;;1.98;;
29906;SDS011;16776;50.958;10.994;2023-06-26T11:08:46;1.90;;;1.80;;
29906;SDS011;16776;50.958;10.994;2023-06-26T11:11:14;2.67;;;2.47;;
29906;SDS011;16776;50.958;10.994;2023-06-26T11:13:42;2.28;;;2.17;;
29906;SDS011;16776;50.958;10.994;2023-06-26T11:16:12;2.50;;;2.30;;
29906;SDS011;16776;50.958;10.994;2023-06-26T11:18:41;2.13;;;2.00;;
29906;SDS011;16776;50.958;10.994;2023-06-26T11:21:10;2.28;;;2.08;;
29906;SDS011;16776;50.958;10.994;2023-06-26T11:23:39;2.25;;;2.08;;
29906;SDS011;16776;50.958;10.994;2023-06-26T11:26:13;2.50;;;2.30;;
29906;SDS011;16776;50.958;10.994;2023-06-26T11:28:45;2.70;;;2.50;;
29906;SDS011;16776;50.958;10.994;2023-06-26T11:31:24;2.30;;;2.10;;
29906;SDS011;16776;50.958;10.994;2023-06-26T11:33:57;2.67;;;2.47;;
29906;SDS011;16776;50.958;10.994;2023-06-26T11:36:25;2.53;;;2.33;;
29906;SDS011;16776;50.958;10.994;2023-06-26T11:38:52;2.53;;;2.33;;
29906;SDS011;16776;50.958;10.994;2023-06-26T11:41:20;1.88;;;1.77;;
29906;SDS011;16776;50.958;10.994;2023-06-26T11:43:49;2.42;;;2.22;;
29906;SDS011;16776;50.958;10.994;2023-06-26T11:46:20;2.17;;;2.08;;
29906;SDS011;16776;50.958;10.994;2023-06-26T11:48:48;2.45;;;2.25;;
29906;SDS011;16776;50.958;10.994;2023-06-26T11:51:15;2.75;;;2.55;;
29906;SDS011;16776;50.958;10.994;2023-06-26T11:53:43;2.90;;;2.70;;
29906;SDS011;16776;50.958;10.994;2023-06-26T11:56:11;3.40;;;2.78;;
29906;SDS011;16776;50.958;10.994;2023-06-26T12:01:23;2.63;;;2.42;;
29906;SDS011;16776;50.958;10.994;2023-06-26T12:03:51;2.60;;;2.40;;
29906;SDS011;16776;50.958;10.994;2023-06-26T12:06:19;2.78;;;2.58;;
29906;SDS011;16776;50.958;10.994;2023-06-26T12:08:48;2.53;;;2.28;;
29906;SDS011;16776;50.958;10.994;2023-06-26T12:11:15;2.50;;;2.30;;
29906;SDS011;16776;50.958;10.994;2023-06-26T12:13:43;2.70;;;2.50;;
29906;SDS011;16776;50.958;10.994;2023-06-26T12:16:11;2.72;;;2.40;;
29906;SDS011;16776;50.958;10.994;2023-06-26T12:18:38;1.92;;;1.83;;
29906;SDS011;16776;50.958;10.994;2023-06-26T12:21:05;2.40;;;2.28;;
29906;SDS011;16776;50.958;10.994;2023-06-26T12:23:32;2.63;;;2.42;;
29906;SDS011;16776;50.958;10.994;2023-06-26T12:29:02;2.60;;;2.40;;
29906;SDS011;16776;50.958;10.994;2023-06-26T12:31:31;2.40;;;2.20;;
29906;SDS011;16776;50.958;10.994;2023-06-26T12:33:58;3.85;;;2.28;;
29906;SDS011;16776;50.958;10.994;2023-06-26T12:36:27;2.35;;;2.20;;
29906;SDS011;16776;50.958;10.994;2023-06-26T12:38:54;2.33;;;2.10;;
29906;SDS011;16776;50.958;10.994;2023-06-26T12:41:23;2.50;;;2.33;;
29906;SDS011;16776;50.958;10.994;2023-06-26T12:43:55;2.90;;;2.40;;
29906;SDS011;16776;50.958;10.994;2023-06-26T12:46:34;2.42;;;2.22;;
29906;SDS011;16776;50.958;10.994;2023-06-26T12:49:01;2.53;;;2.33;;
29906;SDS011;16776;50.958;10.994;2023-06-26T12:51:28;2.53;;;2.33;;
29906;SDS011;16776;50.958;10.994;2023-06-26T12:53:56;2.58;;;2.38;;
29906;SDS011;16776;50.958;10.994;2023-06-26T12:56:25;2.55;;;2.20;;
29906;SDS011;16776;50.958;10.994;2023-06-26T12:58:52;2.58;;;2.38;;
29906;SDS011;16776;50.958;10.994;2023-06-26T13:01:19;2.28;;;2.08;;
29906;SDS011;16776;50.958;10.994;2023-06-26T13:03:47;2.58;;;2.38;;
29906;SDS011;16776;50.958;10.994;2023-06-26T13:06:13;2.50;;;2.30;;
29906;SDS011;16776;50.958;10.994;2023-06-26T13:08:40;2.22;;;2.08;;
29906;SDS011;16776;50.958;10.994;2023-06-26T13:11:06;2.13;;;2.03;;
29906;SDS011;16776;50.958;10.994;2023-06-26T13:13:33;2.90;;;2.70;;
29906;SDS011;16776;50.958;10.994;2023-06-26T13:16:02;2.88;;;2.67;;
29906;SDS011;16776;50.958;10.994;2023-06-26T13:18:28;2.90;;;2.70;;
29906;SDS011;16776;50.958;10.994;2023-06-26T13:20:59;3.08;;;2.78;;
29906;SDS011;16776;50.958;10.994;2023-06-26T13:23:25;2.85;;;2.65;;
29906;SDS011;16776;50.958;10.994;2023-06-26T13:25:52;3.22;;;2.92;;
29906;SDS011;16776;50.958;10.994;2023-06-26T13:28:19;3.38;;;3.03;;
29906;SDS011;16776;50.958;10.994;2023-06-26T13:30:46;3.03;;;2.83;;
29906;SDS011;16776;50.958;10.994;2023-06-26T13:33:12;2.88;;;2.67;;
29906;SDS011;16776;50.958;10.994;2023-06-26T13:35:39;3.35;;;2.90;;
29906;SDS011;16776;50.958;10.994;2023-06-26T13:38:09;2.75;;;2.55;;
29906;SDS011;16776;50.958;10.994;2023-06-26T13:40:35;2.58;;;2.38;;
29906;SDS011;16776;50.958;10.994;2023-06-26T13:43:02;4.15;;;2.65;;
29906;SDS011;16776;50.958;10.994;2023-06-26T13:45:28;4.20;;;2.90;;
29906;SDS011;16776;50.958;10.994;2023-06-26T13:47:55;2.83;;;2.58;;
29906;SDS011;16776;50.958;10.994;2023-06-26T13:50:34;2.70;;;2.50;;
29906;SDS011;16776;50.958;10.994;2023-06-26T13:53:01;3.05;;;2.42;;
29906;SDS011;16776;50.958;10.994;2023-06-26T13:55:29;3.40;;;2.40;;
29906;SDS011;16776;50.958;10.994;2023-06-26T13:57:58;3.50;;;2.47;;
29906;SDS011;16776;50.958;10.994;2023-06-26T14:00:26;3.20;;;2.90;;
29906;SDS011;16776;50.958;10.994;2023-06-26T14:02:53;2.90;;;2.70;;
29906;SDS011;16776;50.958;10.994;2023-06-26T14:05:21;3.45;;;2.60;;
29906;SDS011;16776;50.958;10.994;2023-06-26T14:07:52;3.08;;;2.78;;
29906;SDS011;16776;50.958;10.994;2023-06-26T14:10:20;3.42;;;2.63;;
29906;SDS011;16776;50.958;10.994;2023-06-26T14:12:48;3.50;;;2.75;;
29906;SDS011;16776;50.958;10.994;2023-06-26T14:15:15;2.85;;;2.55;;
29906;SDS011;16776;50.958;10.994;2023-06-26T14:17:41;3.47;;;2.80;;
29906;SDS011;16776;50.958;10.994;2023-06-26T14:20:08;2.65;;;2.45;;
29906;SDS011;16776;50.958;10.994;2023-06-26T14:22:39;2.85;;;2.65;;
29906;SDS011;16776;50.958;10.994;2023-06-26T14:25:06;3.58;;;3.28;;
29906;SDS011;16776;50.958;10.994;2023-06-26T14:27:34;3.70;;;2.85;;
29906;SDS011;16776;50.958;10.994;2023-06-26T14:30:02;2.70;;;2.50;;
29906;SDS011;16776;50.958;10.994;2023-06-26T14:32:29;3.25;;;3.00;;
29906;SDS011;16776;50.958;10.994;2023-06-26T14:34:55;3.17;;;2.88;;
29906;SDS011;16776;50.958;10.994;2023-06-26T14:37:22;3.42;;;3.15;;
29906;SDS011;16776;50.958;10.994;2023-06-26T14:39:50;3.45;;;3.03;;
29906;SDS011;16776;50.958;10.994;2023-06-26T14:42:17;4.10;;;3.67;;
29906;SDS011;16776;50.958;10.994;2023-06-26T14:44:43;3.28;;;2.97;;
29906;SDS011;16776;50.958;10.994;2023-06-26T14:47:13;3.45;;;3.08;;